createdAt,value
2023-02-09T00:00:10.003Z,2.75
2023-02-09T00:02:40.162Z,2.32
2023-02-09T00:05:09.848Z,3.17
2023-02-09T00:07:38.428Z,3.81
2023-02-09T00:10:07.726Z,3.37
2023-02-09T00:12:54.863Z,3.19
2023-02-09T00:15:24.775Z,3.42
2023-02-09T00:17:53.349Z,3.29
2023-02-09T00:20:22.093Z,3.01
2023-02-09T00:22:50.666Z,2.47
2023-02-09T00:25:19.350Z,2.18
2023-02-09T00:27:47.915Z,1.78
2023-02-09T00:30:16.605Z,2.82
2023-02-09T00:32:46.542Z,2.76
2023-02-09T00:35:15.103Z,2.81
2023-02-09T00:37:43.785Z,3.09
2023-02-09T00:40:13.080Z,2.87
2023-02-09T00:42:41.622Z,3.49
2023-02-09T00:45:10.781Z,3.60
2023-02-09T00:47:39.434Z,3.01
2023-02-09T00:50:10.081Z,3.07
2023-02-09T00:52:38.677Z,2.98
2023-02-09T00:55:07.798Z,3.41
2023-02-09T00:57:36.510Z,3.61
2023-02-09T01:00:07.289Z,3.83
2023-02-09T01:02:36.193Z,3.41
2023-02-09T01:05:04.868Z,3.58
2023-02-09T01:07:34.805Z,3.18
2023-02-09T01:10:03.990Z,3.07
2023-02-09T01:12:32.701Z,3.44
2023-02-09T01:15:01.987Z,3.77
2023-02-09T01:17:30.580Z,3.76
2023-02-09T01:19:59.185Z,3.53
2023-02-09T01:22:28.007Z,2.79
2023-02-09T01:24:57.933Z,2.38
2023-02-09T01:27:26.513Z,3.34
2023-02-09T01:29:55.072Z,3.62
2023-02-09T01:32:23.648Z,3.73
2023-02-09T01:34:52.711Z,3.82
2023-02-09T01:37:21.936Z,3.78
2023-02-09T01:39:50.761Z,3.09
2023-02-09T01:42:22.222Z,2.95
2023-02-09T01:45:09.836Z,2.62
2023-02-09T01:47:45.501Z,2.96
2023-02-09T01:50:14.501Z,2.86
2023-02-09T01:52:44.746Z,2.92
2023-02-09T01:55:17.867Z,2.47
2023-02-09T01:57:51.774Z,2.40
2023-02-09T02:00:22.675Z,2.77
2023-02-09T02:02:55.889Z,3.02
2023-02-09T02:05:25.822Z,2.91
2023-02-09T02:08:02.441Z,3.26
2023-02-09T02:10:31.042Z,3.33
2023-02-09T02:13:01.880Z,3.71
2023-02-09T02:15:36.281Z,3.51
2023-02-09T02:18:21.270Z,3.71
2023-02-09T02:21:28.425Z,3.36
2023-02-09T02:24:17.429Z,3.23
2023-02-09T02:26:59.256Z,3.54
2023-02-09T02:30:09.385Z,3.41
2023-02-09T02:32:57.640Z,3.25
2023-02-09T02:35:36.519Z,2.88
2023-02-09T02:38:16.416Z,2.80
2023-02-09T02:40:54.277Z,3.31
2023-02-09T02:43:34.107Z,2.78
2023-02-09T02:46:06.464Z,3.19
2023-02-09T02:48:42.500Z,3.42
2023-02-09T02:51:18.168Z,3.44
2023-02-09T02:53:52.693Z,3.59
2023-02-09T02:56:25.380Z,3.71
2023-02-09T02:58:58.064Z,3.65
2023-02-09T03:01:35.127Z,3.78
2023-02-09T03:04:07.440Z,3.99
2023-02-09T03:06:38.300Z,3.24
2023-02-09T03:09:07.082Z,3.40
2023-02-09T03:11:40.683Z,3.42
2023-02-09T03:14:23.582Z,3.76
2023-02-09T03:17:01.334Z,3.66
2023-02-09T03:19:42.080Z,3.65
2023-02-09T03:22:17.175Z,3.27
2023-02-09T03:24:52.986Z,3.75
2023-02-09T03:27:26.050Z,3.70
2023-02-09T03:29:57.197Z,3.02
2023-02-09T03:32:26.404Z,3.11
2023-02-09T03:34:57.321Z,3.39
2023-02-09T03:37:26.014Z,2.93
2023-02-09T03:39:54.691Z,3.40
2023-02-09T03:42:23.280Z,2.49
2023-02-09T03:44:51.800Z,2.93
2023-02-09T03:47:20.377Z,2.63
2023-02-09T03:49:48.923Z,1.82
2023-02-09T03:52:19.442Z,1.82
2023-02-09T03:54:47.988Z,1.96
2023-02-09T03:57:16.552Z,2.31
2023-02-09T03:59:45.199Z,1.95
2023-02-09T04:02:13.816Z,1.80
2023-02-09T04:04:42.412Z,2.30
2023-02-09T04:07:12.195Z,1.99
2023-02-09T04:09:42.143Z,2.66
2023-02-09T04:12:10.667Z,1.75
2023-02-09T04:14:39.247Z,2.76
2023-02-09T04:17:07.824Z,2.43
2023-02-09T04:19:36.399Z,1.45
2023-02-09T04:22:04.970Z,1.85
2023-02-09T04:24:33.515Z,2.46
2023-02-09T04:27:03.434Z,2.73
2023-02-09T04:29:32.066Z,1.64
2023-02-09T04:32:00.631Z,2.07
2023-02-09T04:34:29.426Z,2.14
2023-02-09T04:36:57.970Z,1.93
2023-02-09T04:39:26.552Z,1.85
2023-02-09T04:41:55.099Z,2.18
2023-02-09T04:44:25.034Z,1.87
2023-02-09T04:46:53.699Z,0.79
2023-02-09T04:49:22.277Z,1.33
2023-02-09T04:51:50.831Z,1.57
2023-02-09T04:54:19.392Z,1.68
2023-02-09T04:57:07.931Z,2.19
2023-02-09T04:59:39.282Z,2.20
2023-02-09T05:02:07.927Z,2.18
2023-02-09T05:04:36.515Z,2.07
2023-02-09T05:07:05.194Z,2.48
2023-02-09T05:09:33.833Z,2.21
2023-02-09T05:12:02.392Z,2.26
2023-02-09T05:14:30.988Z,1.69
2023-02-09T05:17:01.619Z,1.93
2023-02-09T05:19:30.224Z,2.43
2023-02-09T05:21:58.782Z,2.64
2023-02-09T05:24:27.451Z,2.31
2023-02-09T05:26:56.007Z,2.31
2023-02-09T05:29:24.575Z,1.79
2023-02-09T05:31:53.119Z,2.28
2023-02-09T05:34:23.178Z,2.19
2023-02-09T05:36:51.702Z,1.75
2023-02-09T05:39:20.413Z,1.76
2023-02-09T05:42:06.715Z,2.58
2023-02-09T05:44:35.359Z,1.56
2023-02-09T05:47:03.894Z,1.97
2023-02-09T05:49:34.545Z,1.69
2023-02-09T05:52:03.270Z,1.08
2023-02-09T05:54:32.128Z,2.17
2023-02-09T05:57:00.696Z,2.36
2023-02-09T05:59:29.400Z,2.80
2023-02-09T06:01:58.148Z,2.41
2023-02-09T06:04:27.422Z,2.64
2023-02-09T06:06:57.750Z,2.33
2023-02-09T06:09:26.509Z,2.44
2023-02-09T06:11:55.226Z,2.26
2023-02-09T06:14:24.083Z,2.28
2023-02-09T06:16:52.634Z,2.72
2023-02-09T06:19:22.498Z,2.42
2023-02-09T06:21:51.129Z,2.38
2023-02-09T06:24:21.065Z,2.18
2023-02-09T06:26:49.651Z,1.45
2023-02-09T06:29:18.210Z,1.22
2023-02-09T06:31:46.900Z,2.00
2023-02-09T06:34:15.504Z,1.67
2023-02-09T06:36:44.081Z,1.71
2023-02-09T06:39:12.965Z,2.00
2023-02-09T06:41:42.901Z,2.68
2023-02-09T06:44:12.052Z,2.84
2023-02-09T06:46:41.110Z,3.16
2023-02-09T06:49:09.753Z,2.76
2023-02-09T06:51:38.540Z,2.87
2023-02-09T06:54:07.228Z,2.68
2023-02-09T06:56:35.878Z,2.64
2023-02-09T06:59:05.797Z,2.52
2023-02-09T07:01:34.467Z,2.86
2023-02-09T07:04:03.390Z,2.76
2023-02-09T07:06:32.011Z,2.64
2023-02-09T07:09:00.567Z,2.56
2023-02-09T07:11:30.589Z,1.26
2023-02-09T07:13:59.165Z,1.81
2023-02-09T07:16:29.475Z,1.92
2023-02-09T07:19:00.448Z,2.43
2023-02-09T07:21:29.126Z,2.58
2023-02-09T07:23:57.699Z,2.94
2023-02-09T07:26:26.277Z,2.28
2023-02-09T07:28:54.832Z,2.86
2023-02-09T07:31:23.528Z,2.23
2023-02-09T07:33:55.281Z,1.37
2023-02-09T07:36:24.280Z,2.09
2023-02-09T07:38:52.921Z,1.34
2023-02-09T07:41:25.249Z,1.81
2023-02-09T07:43:54.460Z,1.64
2023-02-09T07:46:25.523Z,2.05
2023-02-09T07:48:55.548Z,1.38
2023-02-09T07:51:25.460Z,1.65
2023-02-09T07:53:54.473Z,0.96
2023-02-09T07:56:23.367Z,0.88
2023-02-09T07:58:52.014Z,1.43
2023-02-09T08:01:21.078Z,1.21
2023-02-09T08:03:51.510Z,1.75
2023-02-09T08:06:41.101Z,2.65
2023-02-09T08:09:12.070Z,2.03
2023-02-09T08:11:46.021Z,1.86
2023-02-09T08:14:18.277Z,1.89
2023-02-09T08:16:48.229Z,1.86
2023-02-09T08:19:20.711Z,1.92
2023-02-09T08:21:52.110Z,1.95
2023-02-09T08:24:22.604Z,0.67
2023-02-09T08:26:51.679Z,1.55
2023-02-09T08:29:20.364Z,2.31
2023-02-09T08:31:48.950Z,1.88
2023-02-09T08:34:17.481Z,2.35
2023-02-09T08:36:46.034Z,2.30
2023-02-09T08:39:15.946Z,3.05
2023-02-09T08:41:46.277Z,3.14
2023-02-09T08:44:15.105Z,3.05
2023-02-09T08:46:43.860Z,2.74
2023-02-09T08:49:13.125Z,1.70
2023-02-09T08:51:41.713Z,1.03
2023-02-09T08:54:10.299Z,1.22
2023-02-09T08:56:40.205Z,1.79
2023-02-09T08:59:08.754Z,2.29
2023-02-09T09:01:39.034Z,2.30
2023-02-09T09:04:07.780Z,1.93
2023-02-09T09:06:36.480Z,2.82
2023-02-09T09:09:05.084Z,1.89
2023-02-09T09:11:33.757Z,1.44
2023-02-09T09:14:03.661Z,2.30
2023-02-09T09:16:32.521Z,2.23
2023-02-09T09:19:01.181Z,2.10
2023-02-09T09:21:29.763Z,1.58
2023-02-09T09:23:58.363Z,1.86
2023-02-09T09:26:26.958Z,2.84
2023-02-09T09:28:55.489Z,2.96
2023-02-09T09:31:25.515Z,2.72
2023-02-09T09:33:54.126Z,2.07
2023-02-09T09:36:22.737Z,1.98
2023-02-09T09:38:51.443Z,2.29
2023-02-09T09:41:24.445Z,2.01
2023-02-09T09:43:54.763Z,1.88
2023-02-09T09:46:28.041Z,2.20
2023-02-09T09:48:58.873Z,2.18
2023-02-09T09:51:39.344Z,2.67
2023-02-09T09:54:13.953Z,2.48
2023-02-09T09:56:42.879Z,2.84
2023-02-09T09:59:18.662Z,3.27
2023-02-09T10:01:50.686Z,3.05
2023-02-09T10:04:19.694Z,2.67
2023-02-09T10:06:52.987Z,3.31
2023-02-09T10:09:33.090Z,3.07
2023-02-09T10:12:13.018Z,3.74
2023-02-09T10:14:41.560Z,3.41
2023-02-09T10:17:11.848Z,3.28
2023-02-09T10:19:40.443Z,3.72
2023-02-09T10:22:13.773Z,4.03
2023-02-09T10:24:42.358Z,3.93
2023-02-09T10:27:16.574Z,3.67
2023-02-09T10:29:45.115Z,3.33
2023-02-09T10:32:20.606Z,3.25
2023-02-09T10:34:51.553Z,3.17
2023-02-09T10:37:27.684Z,3.61
2023-02-09T10:40:08.432Z,3.27
2023-02-09T10:42:38.640Z,3.64
2023-02-09T10:45:17.011Z,3.71
2023-02-09T10:47:59.260Z,3.35
2023-02-09T10:50:28.011Z,3.64
2023-02-09T10:53:00.089Z,3.40
2023-02-09T10:55:35.173Z,3.51
2023-02-09T10:58:19.082Z,3.60
2023-02-09T11:00:54.708Z,3.04
2023-02-09T11:03:26.325Z,2.94
2023-02-09T11:06:03.936Z,3.07
2023-02-09T11:08:46.785Z,3.63
2023-02-09T11:11:30.111Z,3.49
2023-02-09T11:13:58.994Z,3.61
2023-02-09T11:16:57.165Z,3.34
2023-02-09T11:19:56.339Z,3.69
2023-02-09T11:22:34.924Z,3.61
2023-02-09T11:25:14.206Z,4.27
2023-02-09T11:27:58.085Z,4.07
2023-02-09T11:30:45.850Z,3.47
2023-02-09T11:33:23.091Z,3.79
2023-02-09T11:36:05.552Z,3.27
2023-02-09T11:38:41.314Z,3.40
2023-02-09T11:41:28.430Z,3.55
2023-02-09T11:44:01.061Z,3.48
2023-02-09T11:46:34.729Z,3.78
2023-02-09T11:49:13.035Z,3.47
2023-02-09T11:51:45.776Z,3.93
2023-02-09T11:54:17.906Z,4.48
2023-02-09T11:56:50.362Z,4.09
2023-02-09T11:59:23.444Z,3.70
2023-02-09T12:01:59.015Z,3.50
2023-02-09T12:04:33.695Z,3.71
2023-02-09T12:07:08.334Z,3.86
2023-02-09T12:09:52.585Z,3.95
2023-02-09T12:12:28.838Z,3.64
2023-02-09T12:15:16.318Z,4.02
2023-02-09T12:17:51.079Z,4.15
2023-02-09T12:20:28.900Z,4.45
2023-02-09T12:23:26.313Z,3.98
2023-02-09T12:25:59.717Z,4.20
2023-02-09T12:28:45.481Z,4.28
2023-02-09T12:31:23.600Z,3.85
2023-02-09T12:34:28.332Z,4.08
2023-02-09T12:37:20.302Z,4.38
2023-02-09T12:40:22.546Z,4.47
2023-02-09T12:43:13.014Z,4.45
2023-02-09T12:45:43.376Z,4.35
2023-02-09T12:48:19.377Z,4.29
2023-02-09T12:50:57.602Z,4.62
2023-02-09T12:53:50.152Z,4.29
2023-02-09T12:56:30.623Z,4.37
2023-02-09T12:59:16.814Z,4.15
2023-02-09T13:02:21.817Z,4.22
2023-02-09T13:05:02.917Z,4.29
2023-02-09T13:07:42.590Z,4.49
2023-02-09T13:10:22.437Z,4.68
2023-02-09T13:12:56.837Z,4.78
2023-02-09T13:15:30.306Z,4.46
2023-02-09T13:18:14.336Z,4.27
2023-02-09T13:21:12.377Z,4.27
2023-02-09T13:23:51.014Z,4.80
2023-02-09T13:26:24.926Z,4.94
2023-02-09T13:29:20.367Z,4.91
2023-02-09T13:32:00.431Z,4.56
2023-02-09T13:34:35.731Z,4.66
2023-02-09T13:37:20.414Z,4.58
2023-02-09T13:39:57.709Z,4.52
2023-02-09T13:42:27.667Z,4.58
2023-02-09T13:44:59.724Z,4.60
2023-02-09T13:47:29.889Z,4.71
2023-02-09T13:50:00.849Z,4.63
2023-02-09T13:52:36.394Z,5.23
2023-02-09T13:55:12.686Z,5.04
2023-02-09T13:57:43.947Z,5.39
2023-02-09T14:00:23.563Z,5.46
2023-02-09T14:02:55.439Z,5.04
2023-02-09T14:05:34.462Z,4.97
2023-02-09T14:08:04.083Z,4.79
2023-02-09T14:10:35.173Z,5.03
2023-02-09T14:13:07.367Z,5.06
2023-02-09T14:15:58.638Z,5.09
2023-02-09T14:18:33.227Z,5.41
2023-02-09T14:21:04.891Z,5.40
2023-02-09T14:23:36.068Z,5.23
2023-02-09T14:26:07.382Z,4.94
2023-02-09T14:28:37.458Z,5.02
2023-02-09T14:31:08.174Z,5.13
2023-02-09T14:33:39.006Z,5.33
2023-02-09T14:36:21.568Z,5.57
2023-02-09T14:38:51.705Z,5.52
2023-02-09T14:41:30.072Z,5.44
2023-02-09T14:44:01.926Z,5.10
2023-02-09T14:46:49.280Z,5.08
2023-02-09T14:49:17.901Z,4.88
2023-02-09T14:51:48.033Z,5.12
2023-02-09T14:54:25.280Z,5.07
2023-02-09T14:56:57.878Z,5.29
2023-02-09T14:59:26.983Z,5.37
2023-02-09T15:01:57.505Z,4.93
2023-02-09T15:04:26.197Z,4.93
2023-02-09T15:07:02.847Z,4.93
2023-02-09T15:09:35.992Z,5.02
2023-02-09T15:12:05.551Z,5.44
2023-02-09T15:14:42.182Z,5.73
2023-02-09T15:17:15.700Z,5.28
2023-02-09T15:19:44.733Z,5.79
2023-02-09T15:22:15.268Z,5.54
2023-02-09T15:24:44.862Z,5.46
2023-02-09T15:27:27.843Z,5.62
2023-02-09T15:30:00.179Z,5.66
2023-02-09T15:32:31.150Z,5.54
2023-02-09T15:34:59.686Z,5.68
2023-02-09T15:37:30.813Z,5.73
2023-02-09T15:40:03.062Z,5.75
2023-02-09T15:42:48.955Z,5.76
2023-02-09T15:45:37.759Z,5.36
2023-02-09T15:48:08.062Z,4.98
2023-02-09T15:50:39.996Z,5.25
2023-02-09T15:53:11.251Z,5.13
2023-02-09T15:55:40.909Z,5.29
2023-02-09T15:58:15.343Z,5.44
2023-02-09T16:00:44.480Z,5.40
2023-02-09T16:03:17.886Z,5.48
2023-02-09T16:05:49.495Z,5.59
2023-02-09T16:08:20.767Z,5.40
2023-02-09T16:10:50.208Z,5.61
2023-02-09T16:13:20.209Z,5.63
2023-02-09T16:15:49.578Z,5.62
2023-02-09T16:18:19.733Z,5.72
2023-02-09T16:20:52.260Z,5.70
2023-02-09T16:23:24.002Z,5.62
2023-02-09T16:25:54.471Z,5.64
2023-02-09T16:28:23.471Z,5.61
2023-02-09T16:30:54.430Z,5.61
2023-02-09T16:33:25.606Z,5.64
2023-02-09T16:35:56.379Z,5.64
2023-02-09T16:38:26.183Z,5.69
2023-02-09T16:40:56.505Z,5.81
2023-02-09T16:43:25.686Z,5.76
2023-02-09T16:46:03.419Z,5.82
2023-02-09T16:48:35.493Z,5.88
2023-02-09T16:51:04.250Z,5.96
2023-02-09T16:53:36.171Z,5.84
2023-02-09T16:56:10.147Z,5.96
2023-02-09T16:58:38.986Z,5.93
2023-02-09T17:01:16.826Z,5.87
2023-02-09T17:03:50.076Z,5.93
2023-02-09T17:06:21.351Z,5.93
2023-02-09T17:08:50.274Z,6.03
2023-02-09T17:11:21.566Z,5.90
2023-02-09T17:13:50.175Z,5.83
2023-02-09T17:16:21.393Z,5.70
2023-02-09T17:18:54.584Z,5.53
2023-02-09T17:21:25.989Z,5.56
2023-02-09T17:23:57.421Z,5.72
2023-02-09T17:26:26.528Z,5.84
2023-02-09T17:28:55.386Z,5.87
2023-02-09T17:31:26.446Z,5.53
2023-02-09T17:33:58.898Z,5.31
2023-02-09T17:36:29.429Z,5.17
2023-02-09T17:39:00.394Z,5.29
2023-02-09T17:41:34.253Z,5.17
2023-02-09T17:44:24.150Z,5.31
2023-02-09T17:47:00.407Z,5.52
2023-02-09T17:49:30.296Z,5.67
2023-02-09T17:51:58.883Z,5.29
2023-02-09T17:54:28.021Z,5.60
2023-02-09T17:56:56.637Z,5.80
2023-02-09T17:59:25.233Z,5.87
2023-02-09T18:01:56.212Z,5.96
2023-02-09T18:04:27.302Z,6.09
2023-02-09T18:06:58.354Z,6.09
2023-02-09T18:09:26.988Z,6.16
2023-02-09T18:12:02.157Z,6.13
2023-02-09T18:14:32.565Z,6.12
2023-02-09T18:17:01.711Z,6.15
2023-02-09T18:19:30.509Z,5.24
2023-02-09T18:22:02.207Z,5.72
2023-02-09T18:24:32.449Z,5.60
2023-02-09T18:27:01.873Z,5.84
2023-02-09T18:29:30.552Z,5.91
2023-02-09T18:32:00.374Z,5.93
2023-02-09T18:34:29.282Z,6.04
2023-02-09T18:36:59.376Z,6.09
2023-02-09T18:39:27.939Z,6.21
2023-02-09T18:41:56.818Z,6.31
2023-02-09T18:44:29.192Z,6.32
2023-02-09T18:46:58.052Z,6.35
2023-02-09T18:49:26.910Z,6.37
2023-02-09T18:51:57.014Z,6.42
2023-02-09T18:54:28.929Z,6.30
2023-02-09T18:56:57.672Z,6.24
2023-02-09T18:59:30.427Z,6.02
2023-02-09T19:01:59.717Z,5.22
2023-02-09T19:04:28.467Z,5.48
2023-02-09T19:06:57.066Z,5.30
2023-02-09T19:09:26.998Z,5.55
2023-02-09T19:11:55.777Z,5.16
2023-02-09T19:14:39.378Z,5.57
2023-02-09T19:17:10.297Z,5.84
2023-02-09T19:19:39.393Z,6.03
2023-02-09T19:22:08.119Z,5.94
2023-02-09T19:24:38.385Z,5.73
2023-02-09T19:27:09.414Z,5.52
2023-02-09T19:29:41.273Z,5.89
2023-02-09T19:32:10.372Z,5.88
2023-02-09T19:34:41.031Z,5.66
2023-02-09T19:37:09.979Z,5.73
2023-02-09T19:39:41.429Z,5.80
2023-02-09T19:42:10.295Z,5.94
2023-02-09T19:44:38.962Z,6.11
2023-02-09T19:47:08.103Z,6.38
2023-02-09T19:49:36.646Z,5.84
2023-02-09T19:52:05.699Z,5.27
2023-02-09T19:54:35.096Z,5.38
2023-02-09T19:57:05.622Z,5.67
2023-02-09T19:59:34.417Z,6.01
2023-02-09T20:02:03.074Z,5.99
2023-02-09T20:04:31.909Z,6.40
2023-02-09T20:07:00.482Z,6.26
2023-02-09T20:09:29.093Z,6.35
2023-02-09T20:11:57.757Z,6.41
2023-02-09T20:14:30.084Z,6.41
2023-02-09T20:17:00.217Z,6.43
2023-02-09T20:19:29.055Z,6.53
2023-02-09T20:21:57.671Z,6.04
2023-02-09T20:24:26.249Z,6.06
2023-02-09T20:26:54.877Z,6.03
2023-02-09T20:29:23.725Z,6.32
2023-02-09T20:31:54.143Z,6.10
2023-02-09T20:34:23.005Z,6.28
2023-02-09T20:36:51.615Z,6.41
2023-02-09T20:39:22.278Z,6.54
2023-02-09T20:42:12.954Z,6.55
2023-02-09T20:44:59.106Z,6.46
2023-02-09T20:47:30.172Z,6.37
2023-02-09T20:50:00.161Z,6.26
2023-02-09T20:52:29.476Z,6.32
2023-02-09T20:54:58.712Z,6.46
2023-02-09T20:57:30.298Z,6.65
2023-02-09T20:59:59.128Z,6.41
2023-02-09T21:02:29.522Z,6.53
2023-02-09T21:04:59.508Z,6.26
2023-02-09T21:07:28.251Z,6.36
2023-02-09T21:09:56.801Z,6.42
2023-02-09T21:12:25.511Z,6.57
2023-02-09T21:14:54.205Z,6.28
2023-02-09T21:17:23.806Z,6.05
2023-02-09T21:19:53.775Z,6.40
2023-02-09T21:22:22.338Z,6.41
2023-02-09T21:24:50.914Z,6.53
2023-02-09T21:27:19.529Z,6.59
2023-02-09T21:29:48.201Z,6.48
2023-02-09T21:32:18.130Z,6.61
2023-02-09T21:34:46.695Z,6.70
2023-02-09T21:37:16.559Z,6.51
2023-02-09T21:39:45.142Z,6.57
2023-02-09T21:42:30.762Z,6.69
2023-02-09T21:45:00.353Z,6.52
2023-02-09T21:47:30.001Z,6.37
2023-02-09T21:49:59.143Z,6.51
2023-02-09T21:52:29.936Z,6.57
2023-02-09T21:54:59.517Z,6.56
2023-02-09T21:57:28.477Z,6.46
2023-02-09T21:59:59.059Z,6.45
2023-02-09T22:02:28.460Z,6.67
2023-02-09T22:04:57.224Z,6.74
2023-02-09T22:07:25.834Z,6.54
2023-02-09T22:09:55.842Z,6.54
2023-02-09T22:12:24.405Z,6.66
2023-02-09T22:14:53.017Z,6.78
2023-02-09T22:17:21.566Z,6.82
2023-02-09T22:19:50.124Z,6.83
2023-02-09T22:22:18.646Z,6.86
2023-02-09T22:24:47.235Z,6.75
2023-02-09T22:27:17.156Z,6.58
2023-02-09T22:29:46.372Z,6.71
2023-02-09T22:32:14.946Z,6.03
2023-02-09T22:34:43.541Z,5.86
2023-02-09T22:37:12.512Z,6.22
2023-02-09T22:39:41.081Z,6.30
2023-02-09T22:42:09.649Z,6.61
2023-02-09T22:44:39.608Z,6.87
2023-02-09T22:47:08.157Z,5.82
2023-02-09T22:49:36.753Z,5.48
2023-02-09T22:52:05.466Z,6.17
2023-02-09T22:54:34.172Z,5.81
2023-02-09T22:57:02.763Z,6.09
2023-02-09T22:59:31.616Z,6.63
2023-02-09T23:02:01.523Z,6.66
2023-02-09T23:04:32.048Z,6.54
2023-02-09T23:07:01.021Z,6.72
2023-02-09T23:09:29.751Z,6.73
2023-02-09T23:11:58.358Z,6.76
2023-02-09T23:14:26.928Z,6.81
2023-02-09T23:16:55.478Z,6.58
2023-02-09T23:19:25.682Z,6.67
2023-02-09T23:21:54.364Z,6.80
2023-02-09T23:24:24.534Z,6.37
2023-02-09T23:26:54.260Z,6.55
2023-02-09T23:29:23.287Z,6.42
2023-02-09T23:31:52.101Z,6.48
2023-02-09T23:34:22.471Z,6.57
2023-02-09T23:36:52.756Z,6.10
2023-02-09T23:39:23.546Z,6.10
2023-02-09T23:41:52.200Z,6.43
2023-02-09T23:44:20.795Z,5.91
2023-02-09T23:46:49.492Z,5.85
2023-02-09T23:49:18.118Z,5.86
2023-02-09T23:51:47.146Z,6.20
2023-02-09T23:54:17.122Z,6.28
2023-02-09T23:56:46.733Z,5.74
2023-02-09T23:59:16.889Z,5.94
